sensor_id;sensor_type;location;lat;lon;timestamp;temperature;humidity
21682;DHT22;11002;48.256;10.084;2022-12-10T00:02:02;16.70;26.60
21682;DHT22;11002;48.256;10.084;2022-12-10T00:04:30;16.70;26.50
21682;DHT22;11002;48.256;10.084;2022-12-10T00:06:58;16.70;26.60
21682;DHT22;11002;48.256;10.084;2022-12-10T00:09:25;16.70;26.50
21682;DHT22;11002;48.256;10.084;2022-12-10T00:11:53;16.70;26.50
21682;DHT22;11002;48.256;10.084;2022-12-10T00:14:20;16.70;26.60
21682;DHT22;11002;48.256;10.084;2022-12-10T00:16:47;16.70;26.50
21682;DHT22;11002;48.256;10.084;2022-12-10T00:19:15;16.70;26.60
21682;DHT22;11002;48.256;10.084;2022-12-10T00:21:44;16.70;26.50
21682;DHT22;11002;48.256;10.084;2022-12-10T00:24:12;16.70;26.60
21682;DHT22;11002;48.256;10.084;2022-12-10T00:26:40;16.70;26.50
21682;DHT22;11002;48.256;10.084;2022-12-10T00:29:10;16.70;26.60
21682;DHT22;11002;48.256;10.084;2022-12-10T00:31:39;16.70;26.50
21682;DHT22;11002;48.256;10.084;2022-12-10T00:34:07;16.70;26.60
21682;DHT22;11002;48.256;10.084;2022-12-10T00:36:38;16.70;26.50
21682;DHT22;11002;48.256;10.084;2022-12-10T00:39:07;16.70;26.60
21682;DHT22;11002;48.256;10.084;2022-12-10T00:41:34;16.70;26.60
21682;DHT22;11002;48.256;10.084;2022-12-10T00:44:01;16.70;26.60
21682;DHT22;11002;48.256;10.084;2022-12-10T00:46:29;16.70;26.60
21682;DHT22;11002;48.256;10.084;2022-12-10T00:48:57;16.70;26.50
21682;DHT22;11002;48.256;10.084;2022-12-10T00:51:26;16.70;26.60
21682;DHT22;11002;48.256;10.084;2022-12-10T00:53:55;16.70;26.50
21682;DHT22;11002;48.256;10.084;2022-12-10T00:56:27;16.70;26.60
21682;DHT22;11002;48.256;10.084;2022-12-10T00:58:55;16.70;26.60
21682;DHT22;11002;48.256;10.084;2022-12-10T01:01:26;16.70;26.60
21682;DHT22;11002;48.256;10.084;2022-12-10T01:03:55;16.70;26.60
21682;DHT22;11002;48.256;10.084;2022-12-10T01:06:25;16.70;26.50
21682;DHT22;11002;48.256;10.084;2022-12-10T01:08:54;16.70;26.50
21682;DHT22;11002;48.256;10.084;2022-12-10T01:11:24;16.70;26.60
21682;DHT22;11002;48.256;10.084;2022-12-10T01:13:52;16.70;26.60
21682;DHT22;11002;48.256;10.084;2022-12-10T01:16:21;16.70;26.50
21682;DHT22;11002;48.256;10.084;2022-12-10T01:18:52;16.70;26.50
21682;DHT22;11002;48.256;10.084;2022-12-10T01:21:20;16.70;26.60
21682;DHT22;11002;48.256;10.084;2022-12-10T01:23:49;16.70;26.50
21682;DHT22;11002;48.256;10.084;2022-12-10T01:26:21;16.70;26.50
21682;DHT22;11002;48.256;10.084;2022-12-10T01:28:50;16.70;26.50
21682;DHT22;11002;48.256;10.084;2022-12-10T01:31:20;16.70;26.50
21682;DHT22;11002;48.256;10.084;2022-12-10T01:33:48;16.70;26.50
21682;DHT22;11002;48.256;10.084;2022-12-10T01:36:17;16.70;26.50
21682;DHT22;11002;48.256;10.084;2022-12-10T01:38:45;16.70;26.60
21682;DHT22;11002;48.256;10.084;2022-12-10T01:41:15;16.70;26.50
21682;DHT22;11002;48.256;10.084;2022-12-10T01:43:56;16.60;26.50
21682;DHT22;11002;48.256;10.084;2022-12-10T01:46:26;16.60;26.50
21682;DHT22;11002;48.256;10.084;2022-12-10T01:48:55;16.60;26.50
21682;DHT22;11002;48.256;10.084;2022-12-10T01:51:24;16.60;26.50
21682;DHT22;11002;48.256;10.084;2022-12-10T01:53:52;16.60;26.50
21682;DHT22;11002;48.256;10.084;2022-12-10T01:56:21;16.60;26.50
21682;DHT22;11002;48.256;10.084;2022-12-10T01:58:51;16.60;26.50
21682;DHT22;11002;48.256;10.084;2022-12-10T02:01:27;16.60;26.50
21682;DHT22;11002;48.256;10.084;2022-12-10T02:04:00;16.60;26.50
21682;DHT22;11002;48.256;10.084;2022-12-10T02:06:40;16.60;27.00
21682;DHT22;11002;48.256;10.084;2022-12-10T02:09:16;16.60;26.50
21682;DHT22;11002;48.256;10.084;2022-12-10T02:11:54;16.60;26.50
21682;DHT22;11002;48.256;10.084;2022-12-10T02:14:29;16.60;26.50
21682;DHT22;11002;48.256;10.084;2022-12-10T02:17:02;16.60;26.50
21682;DHT22;11002;48.256;10.084;2022-12-10T02:22:23;16.60;26.50
21682;DHT22;11002;48.256;10.084;2022-12-10T02:24:53;16.60;26.50
21682;DHT22;11002;48.256;10.084;2022-12-10T02:27:26;16.60;26.50
21682;DHT22;11002;48.256;10.084;2022-12-10T02:29:58;16.60;26.50
21682;DHT22;11002;48.256;10.084;2022-12-10T02:32:33;16.60;26.50
21682;DHT22;11002;48.256;10.084;2022-12-10T02:35:06;16.60;26.50
21682;DHT22;11002;48.256;10.084;2022-12-10T02:37:36;16.60;26.50
21682;DHT22;11002;48.256;10.084;2022-12-10T02:40:08;16.60;26.50
21682;DHT22;11002;48.256;10.084;2022-12-10T02:42:44;16.60;26.50
21682;DHT22;11002;48.256;10.084;2022-12-10T02:45:15;16.60;26.50
21682;DHT22;11002;48.256;10.084;2022-12-10T02:47:43;16.60;26.50
21682;DHT22;11002;48.256;10.084;2022-12-10T02:50:14;16.60;26.50
21682;DHT22;11002;48.256;10.084;2022-12-10T02:52:43;16.60;26.50
21682;DHT22;11002;48.256;10.084;2022-12-10T02:55:12;16.60;26.50
21682;DHT22;11002;48.256;10.084;2022-12-10T02:57:46;16.60;26.50
21682;DHT22;11002;48.256;10.084;2022-12-10T03:00:17;16.60;26.50
21682;DHT22;11002;48.256;10.084;2022-12-10T03:03:08;16.60;26.50
21682;DHT22;11002;48.256;10.084;2022-12-10T03:05:44;16.60;26.50
21682;DHT22;11002;48.256;10.084;2022-12-10T03:08:17;16.60;26.50
21682;DHT22;11002;48.256;10.084;2022-12-10T03:10:52;16.60;26.50
21682;DHT22;11002;48.256;10.084;2022-12-10T03:13:21;16.60;26.50
21682;DHT22;11002;48.256;10.084;2022-12-10T03:15:51;16.60;26.50
21682;DHT22;11002;48.256;10.084;2022-12-10T03:18:22;16.60;26.50
21682;DHT22;11002;48.256;10.084;2022-12-10T03:20:53;16.60;26.50
21682;DHT22;11002;48.256;10.084;2022-12-10T03:23:21;16.60;26.50
21682;DHT22;11002;48.256;10.084;2022-12-10T03:25:50;16.60;26.50
21682;DHT22;11002;48.256;10.084;2022-12-10T03:28:19;16.60;26.50
21682;DHT22;11002;48.256;10.084;2022-12-10T03:30:47;16.60;26.50
21682;DHT22;11002;48.256;10.084;2022-12-10T03:33:17;16.60;26.50
21682;DHT22;11002;48.256;10.084;2022-12-10T03:35:45;16.60;26.50
21682;DHT22;11002;48.256;10.084;2022-12-10T03:38:14;16.60;26.50
21682;DHT22;11002;48.256;10.084;2022-12-10T03:40:42;16.60;26.50
21682;DHT22;11002;48.256;10.084;2022-12-10T03:43:12;16.60;26.50
21682;DHT22;11002;48.256;10.084;2022-12-10T03:45:40;16.60;26.50
21682;DHT22;11002;48.256;10.084;2022-12-10T03:48:07;16.60;26.50
21682;DHT22;11002;48.256;10.084;2022-12-10T03:50:36;16.60;26.50
21682;DHT22;11002;48.256;10.084;2022-12-10T03:53:03;16.60;26.50
21682;DHT22;11002;48.256;10.084;2022-12-10T03:55:31;16.60;26.50
21682;DHT22;11002;48.256;10.084;2022-12-10T03:57:58;16.60;26.50
21682;DHT22;11002;48.256;10.084;2022-12-10T04:00:26;16.50;26.40
21682;DHT22;11002;48.256;10.084;2022-12-10T04:02:53;16.60;26.50
21682;DHT22;11002;48.256;10.084;2022-12-10T04:05:20;16.50;26.40
21682;DHT22;11002;48.256;10.084;2022-12-10T04:07:49;16.50;26.40
21682;DHT22;11002;48.256;10.084;2022-12-10T04:10:17;16.50;26.40
21682;DHT22;11002;48.256;10.084;2022-12-10T04:12:44;16.50;26.40
21682;DHT22;11002;48.256;10.084;2022-12-10T04:15:32;16.60;27.00
21682;DHT22;11002;48.256;10.084;2022-12-10T04:18:16;16.50;26.40
21682;DHT22;11002;48.256;10.084;2022-12-10T04:20:43;16.50;26.40
21682;DHT22;11002;48.256;10.084;2022-12-10T04:23:29;16.50;26.40
21682;DHT22;11002;48.256;10.084;2022-12-10T04:26:14;16.50;26.40
21682;DHT22;11002;48.256;10.084;2022-12-10T04:28:59;16.50;26.40
21682;DHT22;11002;48.256;10.084;2022-12-10T04:31:26;16.50;26.40
21682;DHT22;11002;48.256;10.084;2022-12-10T04:33:53;16.50;26.40
21682;DHT22;11002;48.256;10.084;2022-12-10T04:36:20;16.50;26.40
21682;DHT22;11002;48.256;10.084;2022-12-10T04:38:49;16.50;26.40
21682;DHT22;11002;48.256;10.084;2022-12-10T04:41:17;16.50;26.40
21682;DHT22;11002;48.256;10.084;2022-12-10T04:43:44;16.50;26.40
21682;DHT22;11002;48.256;10.084;2022-12-10T04:46:11;16.50;26.40
21682;DHT22;11002;48.256;10.084;2022-12-10T04:48:39;16.50;26.40
21682;DHT22;11002;48.256;10.084;2022-12-10T04:51:06;16.50;26.40
21682;DHT22;11002;48.256;10.084;2022-12-10T04:53:33;16.50;26.40
21682;DHT22;11002;48.256;10.084;2022-12-10T04:56:02;16.50;26.40
21682;DHT22;11002;48.256;10.084;2022-12-10T04:58:31;16.50;26.40
21682;DHT22;11002;48.256;10.084;2022-12-10T05:01:02;16.50;26.40
21682;DHT22;11002;48.256;10.084;2022-12-10T05:03:29;16.50;26.40
21682;DHT22;11002;48.256;10.084;2022-12-10T05:06:00;16.50;26.40
21682;DHT22;11002;48.256;10.084;2022-12-10T05:08:28;16.50;26.40
21682;DHT22;11002;48.256;10.084;2022-12-10T05:10:56;16.50;26.40
21682;DHT22;11002;48.256;10.084;2022-12-10T05:13:28;16.50;26.40
21682;DHT22;11002;48.256;10.084;2022-12-10T05:15:55;16.50;26.40
21682;DHT22;11002;48.256;10.084;2022-12-10T05:18:23;16.50;26.40
21682;DHT22;11002;48.256;10.084;2022-12-10T05:20:50;16.50;26.40
21682;DHT22;11002;48.256;10.084;2022-12-10T05:23:18;16.50;26.40
21682;DHT22;11002;48.256;10.084;2022-12-10T05:26:00;16.50;26.40
21682;DHT22;11002;48.256;10.084;2022-12-10T05:28:30;16.50;26.40
21682;DHT22;11002;48.256;10.084;2022-12-10T05:30:58;16.50;26.40
21682;DHT22;11002;48.256;10.084;2022-12-10T05:33:26;16.50;26.40
21682;DHT22;11002;48.256;10.084;2022-12-10T05:35:55;16.50;26.40
21682;DHT22;11002;48.256;10.084;2022-12-10T05:38:24;16.50;26.40
21682;DHT22;11002;48.256;10.084;2022-12-10T05:40:52;16.50;26.40
21682;DHT22;11002;48.256;10.084;2022-12-10T05:43:20;16.50;26.40
21682;DHT22;11002;48.256;10.084;2022-12-10T05:45:48;16.50;26.40
21682;DHT22;11002;48.256;10.084;2022-12-10T05:48:16;16.50;26.40
21682;DHT22;11002;48.256;10.084;2022-12-10T05:50:43;16.50;26.40
21682;DHT22;11002;48.256;10.084;2022-12-10T05:53:10;16.50;26.40
21682;DHT22;11002;48.256;10.084;2022-12-10T05:55:40;16.50;26.40
21682;DHT22;11002;48.256;10.084;2022-12-10T05:58:07;16.50;26.40
21682;DHT22;11002;48.256;10.084;2022-12-10T06:00:34;16.50;26.40
21682;DHT22;11002;48.256;10.084;2022-12-10T06:03:03;16.50;26.40
21682;DHT22;11002;48.256;10.084;2022-12-10T06:05:36;16.50;26.40
21682;DHT22;11002;48.256;10.084;2022-12-10T06:08:03;16.50;26.40
21682;DHT22;11002;48.256;10.084;2022-12-10T06:10:33;16.50;26.40
21682;DHT22;11002;48.256;10.084;2022-12-10T06:13:01;16.50;26.40
21682;DHT22;11002;48.256;10.084;2022-12-10T06:15:29;16.50;26.40
21682;DHT22;11002;48.256;10.084;2022-12-10T06:17:56;16.50;26.40
21682;DHT22;11002;48.256;10.084;2022-12-10T06:20:25;16.50;26.40
21682;DHT22;11002;48.256;10.084;2022-12-10T06:22:53;16.50;26.40
21682;DHT22;11002;48.256;10.084;2022-12-10T06:25:20;16.50;26.40
21682;DHT22;11002;48.256;10.084;2022-12-10T06:27:48;16.50;26.40
21682;DHT22;11002;48.256;10.084;2022-12-10T06:30:15;16.50;26.40
21682;DHT22;11002;48.256;10.084;2022-12-10T06:32:43;16.50;26.40
21682;DHT22;11002;48.256;10.084;2022-12-10T06:35:10;16.50;26.40
21682;DHT22;11002;48.256;10.084;2022-12-10T06:37:39;16.50;26.40
21682;DHT22;11002;48.256;10.084;2022-12-10T06:40:07;16.50;26.40
21682;DHT22;11002;48.256;10.084;2022-12-10T06:42:34;16.50;26.40
21682;DHT22;11002;48.256;10.084;2022-12-10T06:45:02;16.50;26.40
21682;DHT22;11002;48.256;10.084;2022-12-10T06:47:29;16.50;26.40
21682;DHT22;11002;48.256;10.084;2022-12-10T06:49:57;16.50;26.40
21682;DHT22;11002;48.256;10.084;2022-12-10T06:52:24;16.60;26.50
21682;DHT22;11002;48.256;10.084;2022-12-10T06:54:53;16.50;26.40
21682;DHT22;11002;48.256;10.084;2022-12-10T06:57:21;16.50;26.30
21682;DHT22;11002;48.256;10.084;2022-12-10T06:59:48;16.50;26.40
21682;DHT22;11002;48.256;10.084;2022-12-10T07:02:15;16.50;26.40
21682;DHT22;11002;48.256;10.084;2022-12-10T07:04:43;16.50;26.40
21682;DHT22;11002;48.256;10.084;2022-12-10T07:07:10;16.50;26.20
21682;DHT22;11002;48.256;10.084;2022-12-10T07:09:37;16.50;26.30
21682;DHT22;11002;48.256;10.084;2022-12-10T07:12:06;16.50;26.30
21682;DHT22;11002;48.256;10.084;2022-12-10T07:14:34;16.50;26.30
21682;DHT22;11002;48.256;10.084;2022-12-10T07:17:01;16.50;26.20
21682;DHT22;11002;48.256;10.084;2022-12-10T07:19:28;16.50;26.20
21682;DHT22;11002;48.256;10.084;2022-12-10T07:21:55;16.50;26.20
21682;DHT22;11002;48.256;10.084;2022-12-10T07:24:23;16.50;26.10
21682;DHT22;11002;48.256;10.084;2022-12-10T07:26:50;16.50;26.20
21682;DHT22;11002;48.256;10.084;2022-12-10T07:29:21;16.60;26.30
21682;DHT22;11002;48.256;10.084;2022-12-10T07:31:51;16.50;26.40
21682;DHT22;11002;48.256;10.084;2022-12-10T07:34:23;16.50;26.20
21682;DHT22;11002;48.256;10.084;2022-12-10T07:36:51;16.50;26.20
21682;DHT22;11002;48.256;10.084;2022-12-10T07:39:18;16.50;26.10
21682;DHT22;11002;48.256;10.084;2022-12-10T07:41:47;16.50;26.30
21682;DHT22;11002;48.256;10.084;2022-12-10T07:44:15;16.50;26.30
21682;DHT22;11002;48.256;10.084;2022-12-10T07:46:49;16.50;26.30
21682;DHT22;11002;48.256;10.084;2022-12-10T07:49:17;16.50;26.30
21682;DHT22;11002;48.256;10.084;2022-12-10T07:51:46;16.50;26.20
21682;DHT22;11002;48.256;10.084;2022-12-10T07:54:16;16.50;26.20
21682;DHT22;11002;48.256;10.084;2022-12-10T07:56:44;16.50;26.40
21682;DHT22;11002;48.256;10.084;2022-12-10T07:59:11;16.50;26.30
21682;DHT22;11002;48.256;10.084;2022-12-10T08:01:39;16.60;26.30
21682;DHT22;11002;48.256;10.084;2022-12-10T08:04:08;16.50;26.30
21682;DHT22;11002;48.256;10.084;2022-12-10T08:06:36;16.60;26.30
21682;DHT22;11002;48.256;10.084;2022-12-10T08:09:03;16.50;26.30
21682;DHT22;11002;48.256;10.084;2022-12-10T08:11:31;16.60;26.40
21682;DHT22;11002;48.256;10.084;2022-12-10T08:13:58;16.50;26.40
21682;DHT22;11002;48.256;10.084;2022-12-10T08:16:28;16.50;26.40
21682;DHT22;11002;48.256;10.084;2022-12-10T08:18:58;16.50;26.40
21682;DHT22;11002;48.256;10.084;2022-12-10T08:21:28;16.50;26.40
21682;DHT22;11002;48.256;10.084;2022-12-10T08:23:57;16.50;26.40
21682;DHT22;11002;48.256;10.084;2022-12-10T08:26:27;16.60;26.50
21682;DHT22;11002;48.256;10.084;2022-12-10T08:28:55;16.60;26.50
21682;DHT22;11002;48.256;10.084;2022-12-10T08:31:24;16.60;26.50
21682;DHT22;11002;48.256;10.084;2022-12-10T08:33:52;16.60;26.40
21682;DHT22;11002;48.256;10.084;2022-12-10T08:36:19;16.60;26.50
21682;DHT22;11002;48.256;10.084;2022-12-10T08:38:48;16.60;26.50
21682;DHT22;11002;48.256;10.084;2022-12-10T08:41:18;16.60;26.50
21682;DHT22;11002;48.256;10.084;2022-12-10T08:43:46;16.60;26.50
21682;DHT22;11002;48.256;10.084;2022-12-10T08:46:14;16.60;26.40
21682;DHT22;11002;48.256;10.084;2022-12-10T08:48:42;16.60;26.40
21682;DHT22;11002;48.256;10.084;2022-12-10T08:51:11;16.60;26.50
21682;DHT22;11002;48.256;10.084;2022-12-10T08:53:40;16.60;26.50
21682;DHT22;11002;48.256;10.084;2022-12-10T08:56:09;16.60;26.50
21682;DHT22;11002;48.256;10.084;2022-12-10T08:58:37;16.60;26.50
21682;DHT22;11002;48.256;10.084;2022-12-10T09:01:07;16.60;26.50
21682;DHT22;11002;48.256;10.084;2022-12-10T09:03:35;16.60;26.50
21682;DHT22;11002;48.256;10.084;2022-12-10T09:06:04;16.60;26.40
21682;DHT22;11002;48.256;10.084;2022-12-10T09:08:33;16.60;26.50
21682;DHT22;11002;48.256;10.084;2022-12-10T09:11:05;16.60;26.50
21682;DHT22;11002;48.256;10.084;2022-12-10T09:13:34;16.60;26.40
21682;DHT22;11002;48.256;10.084;2022-12-10T09:16:02;16.60;26.40
21682;DHT22;11002;48.256;10.084;2022-12-10T09:18:30;16.60;26.40
21682;DHT22;11002;48.256;10.084;2022-12-10T09:20:58;16.60;26.30
21682;DHT22;11002;48.256;10.084;2022-12-10T09:23:25;16.60;26.50
21682;DHT22;11002;48.256;10.084;2022-12-10T09:25:52;16.60;26.40
21682;DHT22;11002;48.256;10.084;2022-12-10T09:28:19;16.60;26.50
21682;DHT22;11002;48.256;10.084;2022-12-10T09:30:56;16.60;26.50
21682;DHT22;11002;48.256;10.084;2022-12-10T09:33:24;16.60;26.50
21682;DHT22;11002;48.256;10.084;2022-12-10T09:35:51;16.60;26.40
21682;DHT22;11002;48.256;10.084;2022-12-10T09:38:19;16.60;26.30
21682;DHT22;11002;48.256;10.084;2022-12-10T09:40:51;16.60;26.10
21682;DHT22;11002;48.256;10.084;2022-12-10T09:43:32;16.60;26.20
21682;DHT22;11002;48.256;10.084;2022-12-10T09:46:17;16.60;26.30
21682;DHT22;11002;48.256;10.084;2022-12-10T09:48:55;16.60;26.30
21682;DHT22;11002;48.256;10.084;2022-12-10T09:51:37;16.60;26.30
21682;DHT22;11002;48.256;10.084;2022-12-10T09:54:21;16.60;26.30
21682;DHT22;11002;48.256;10.084;2022-12-10T09:56:50;16.60;26.30
21682;DHT22;11002;48.256;10.084;2022-12-10T09:59:22;16.60;26.20
21682;DHT22;11002;48.256;10.084;2022-12-10T10:02:02;16.60;26.30
21682;DHT22;11002;48.256;10.084;2022-12-10T10:04:30;16.60;26.30
21682;DHT22;11002;48.256;10.084;2022-12-10T10:06:57;16.60;26.40
21682;DHT22;11002;48.256;10.084;2022-12-10T10:09:25;16.60;26.30
21682;DHT22;11002;48.256;10.084;2022-12-10T10:11:53;16.60;26.30
21682;DHT22;11002;48.256;10.084;2022-12-10T10:14:24;16.60;26.40
21682;DHT22;11002;48.256;10.084;2022-12-10T10:16:57;16.60;26.40
21682;DHT22;11002;48.256;10.084;2022-12-10T10:19:27;16.60;26.40
21682;DHT22;11002;48.256;10.084;2022-12-10T10:21:55;16.60;26.30
21682;DHT22;11002;48.256;10.084;2022-12-10T10:24:25;16.60;26.40
21682;DHT22;11002;48.256;10.084;2022-12-10T10:26:56;16.60;26.50
21682;DHT22;11002;48.256;10.084;2022-12-10T10:29:24;16.60;26.50
21682;DHT22;11002;48.256;10.084;2022-12-10T10:32:15;16.60;26.50
21682;DHT22;11002;48.256;10.084;2022-12-10T10:34:44;16.60;26.50
21682;DHT22;11002;48.256;10.084;2022-12-10T10:37:23;16.60;26.40
21682;DHT22;11002;48.256;10.084;2022-12-10T10:39:53;16.60;26.50
21682;DHT22;11002;48.256;10.084;2022-12-10T10:42:32;16.60;26.40
21682;DHT22;11002;48.256;10.084;2022-12-10T10:45:02;16.70;26.50
21682;DHT22;11002;48.256;10.084;2022-12-10T10:47:33;16.70;26.40
21682;DHT22;11002;48.256;10.084;2022-12-10T10:50:04;16.70;26.50
21682;DHT22;11002;48.256;10.084;2022-12-10T10:52:36;16.60;26.50
21682;DHT22;11002;48.256;10.084;2022-12-10T10:55:05;16.60;26.50
21682;DHT22;11002;48.256;10.084;2022-12-10T10:57:35;16.70;26.60
21682;DHT22;11002;48.256;10.084;2022-12-10T11:00:05;16.60;26.50
21682;DHT22;11002;48.256;10.084;2022-12-10T11:02:36;16.70;26.50
21682;DHT22;11002;48.256;10.084;2022-12-10T11:05:06;16.70;26.60
21682;DHT22;11002;48.256;10.084;2022-12-10T11:07:39;16.60;26.50
21682;DHT22;11002;48.256;10.084;2022-12-10T11:10:17;16.60;26.50
21682;DHT22;11002;48.256;10.084;2022-12-10T11:12:53;16.70;26.50
21682;DHT22;11002;48.256;10.084;2022-12-10T11:15:32;16.60;26.50
21682;DHT22;11002;48.256;10.084;2022-12-10T11:18:03;16.60;26.50
21682;DHT22;11002;48.256;10.084;2022-12-10T11:20:33;16.70;26.60
21682;DHT22;11002;48.256;10.084;2022-12-10T11:23:03;16.70;26.50
21682;DHT22;11002;48.256;10.084;2022-12-10T11:25:42;16.70;26.50
21682;DHT22;11002;48.256;10.084;2022-12-10T11:28:22;16.70;26.60
21682;DHT22;11002;48.256;10.084;2022-12-10T11:31:02;16.70;26.60
21682;DHT22;11002;48.256;10.084;2022-12-10T11:33:39;16.70;26.60
21682;DHT22;11002;48.256;10.084;2022-12-10T11:36:21;16.70;26.60
21682;DHT22;11002;48.256;10.084;2022-12-10T11:39:01;16.70;26.50
21682;DHT22;11002;48.256;10.084;2022-12-10T11:41:36;16.70;26.60
21682;DHT22;11002;48.256;10.084;2022-12-10T11:44:15;16.70;26.50
21682;DHT22;11002;48.256;10.084;2022-12-10T11:49:45;16.70;26.60
21682;DHT22;11002;48.256;10.084;2022-12-10T11:52:20;16.70;26.50
21682;DHT22;11002;48.256;10.084;2022-12-10T11:55:02;16.70;26.60
21682;DHT22;11002;48.256;10.084;2022-12-10T11:57:40;16.70;26.60
21682;DHT22;11002;48.256;10.084;2022-12-10T12:00:20;16.70;27.10
21682;DHT22;11002;48.256;10.084;2022-12-10T12:03:07;16.70;26.60
21682;DHT22;11002;48.256;10.084;2022-12-10T12:06:00;16.70;26.60
21682;DHT22;11002;48.256;10.084;2022-12-10T12:08:38;16.70;26.60
21682;DHT22;11002;48.256;10.084;2022-12-10T12:11:21;16.70;26.60
21682;DHT22;11002;48.256;10.084;2022-12-10T12:13:55;16.70;27.10
21682;DHT22;11002;48.256;10.084;2022-12-10T12:16:29;16.70;26.60
21682;DHT22;11002;48.256;10.084;2022-12-10T12:19:02;16.70;26.50
21682;DHT22;11002;48.256;10.084;2022-12-10T12:21:31;16.70;26.50
21682;DHT22;11002;48.256;10.084;2022-12-10T12:24:02;16.70;26.50
21682;DHT22;11002;48.256;10.084;2022-12-10T12:26:35;16.70;26.60
21682;DHT22;11002;48.256;10.084;2022-12-10T12:29:12;16.70;26.50
21682;DHT22;11002;48.256;10.084;2022-12-10T12:31:42;16.70;26.60
21682;DHT22;11002;48.256;10.084;2022-12-10T12:34:17;16.70;26.50
21682;DHT22;11002;48.256;10.084;2022-12-10T12:36:49;16.70;26.60
21682;DHT22;11002;48.256;10.084;2022-12-10T12:39:21;16.70;26.50
21682;DHT22;11002;48.256;10.084;2022-12-10T12:41:55;16.80;26.60
21682;DHT22;11002;48.256;10.084;2022-12-10T12:44:26;16.70;26.60
21682;DHT22;11002;48.256;10.084;2022-12-10T12:47:05;16.80;26.60
21682;DHT22;11002;48.256;10.084;2022-12-10T12:49:40;16.70;26.50
21682;DHT22;11002;48.256;10.084;2022-12-10T12:52:19;16.70;26.60
21682;DHT22;11002;48.256;10.084;2022-12-10T12:54:50;16.70;26.60
21682;DHT22;11002;48.256;10.084;2022-12-10T12:57:26;16.70;26.60
21682;DHT22;11002;48.256;10.084;2022-12-10T13:00:00;16.70;26.50
21682;DHT22;11002;48.256;10.084;2022-12-10T13:02:46;16.70;26.60
21682;DHT22;11002;48.256;10.084;2022-12-10T13:05:21;16.70;26.50
21682;DHT22;11002;48.256;10.084;2022-12-10T13:08:22;16.70;26.60
21682;DHT22;11002;48.256;10.084;2022-12-10T13:10:52;16.70;26.50
21682;DHT22;11002;48.256;10.084;2022-12-10T13:13:25;16.70;26.60
21682;DHT22;11002;48.256;10.084;2022-12-10T13:15:55;16.80;26.60
21682;DHT22;11002;48.256;10.084;2022-12-10T13:18:36;16.80;26.60
21682;DHT22;11002;48.256;10.084;2022-12-10T13:21:28;16.70;26.60
21682;DHT22;11002;48.256;10.084;2022-12-10T13:24:08;16.70;26.50
21682;DHT22;11002;48.256;10.084;2022-12-10T13:26:36;16.70;26.60
21682;DHT22;11002;48.256;10.084;2022-12-10T13:29:24;16.70;26.60
21682;DHT22;11002;48.256;10.084;2022-12-10T13:31:57;16.70;26.50
21682;DHT22;11002;48.256;10.084;2022-12-10T13:34:35;16.80;26.60
21682;DHT22;11002;48.256;10.084;2022-12-10T13:37:10;16.70;26.60
21682;DHT22;11002;48.256;10.084;2022-12-10T13:39:47;16.70;26.60
21682;DHT22;11002;48.256;10.084;2022-12-10T13:42:31;16.70;26.50
21682;DHT22;11002;48.256;10.084;2022-12-10T13:45:32;16.70;26.60
21682;DHT22;11002;48.256;10.084;2022-12-10T13:48:23;16.80;26.60
21682;DHT22;11002;48.256;10.084;2022-12-10T13:51:18;16.70;26.50
21682;DHT22;11002;48.256;10.084;2022-12-10T13:54:01;16.70;26.60
21682;DHT22;11002;48.256;10.084;2022-12-10T13:56:38;16.70;26.50
21682;DHT22;11002;48.256;10.084;2022-12-10T13:59:20;16.70;26.60
21682;DHT22;11002;48.256;10.084;2022-12-10T14:02:00;16.70;26.60
21682;DHT22;11002;48.256;10.084;2022-12-10T14:04:51;16.70;26.50
21682;DHT22;11002;48.256;10.084;2022-12-10T14:07:25;16.70;26.50
21682;DHT22;11002;48.256;10.084;2022-12-10T14:09:55;16.70;26.60
21682;DHT22;11002;48.256;10.084;2022-12-10T14:12:28;16.70;26.50
21682;DHT22;11002;48.256;10.084;2022-12-10T14:14:59;16.70;26.60
21682;DHT22;11002;48.256;10.084;2022-12-10T14:17:32;16.70;26.60
21682;DHT22;11002;48.256;10.084;2022-12-10T14:20:00;16.70;26.60
21682;DHT22;11002;48.256;10.084;2022-12-10T14:22:31;16.70;26.50
21682;DHT22;11002;48.256;10.084;2022-12-10T14:25:02;16.70;26.60
21682;DHT22;11002;48.256;10.084;2022-12-10T14:27:32;16.70;26.60
21682;DHT22;11002;48.256;10.084;2022-12-10T14:30:00;16.70;26.60
21682;DHT22;11002;48.256;10.084;2022-12-10T14:32:32;16.70;26.60
21682;DHT22;11002;48.256;10.084;2022-12-10T14:35:02;16.70;26.60
21682;DHT22;11002;48.256;10.084;2022-12-10T14:37:35;16.70;26.50
21682;DHT22;11002;48.256;10.084;2022-12-10T14:40:05;16.70;26.60
21682;DHT22;11002;48.256;10.084;2022-12-10T14:42:37;16.70;26.60
21682;DHT22;11002;48.256;10.084;2022-12-10T14:45:07;16.80;26.60
21682;DHT22;11002;48.256;10.084;2022-12-10T14:47:37;16.70;26.60
21682;DHT22;11002;48.256;10.084;2022-12-10T14:50:10;16.70;26.50
21682;DHT22;11002;48.256;10.084;2022-12-10T14:52:40;16.70;26.60
21682;DHT22;11002;48.256;10.084;2022-12-10T14:55:13;16.80;26.60
21682;DHT22;11002;48.256;10.084;2022-12-10T14:57:44;16.70;26.60
21682;DHT22;11002;48.256;10.084;2022-12-10T15:00:14;16.70;26.50
21682;DHT22;11002;48.256;10.084;2022-12-10T15:02:45;16.70;26.50
21682;DHT22;11002;48.256;10.084;2022-12-10T15:05:18;16.80;26.60
21682;DHT22;11002;48.256;10.084;2022-12-10T15:07:51;16.80;26.60
21682;DHT22;11002;48.256;10.084;2022-12-10T15:10:24;16.70;26.60
21682;DHT22;11002;48.256;10.084;2022-12-10T15:12:53;16.80;26.60
21682;DHT22;11002;48.256;10.084;2022-12-10T15:15:26;16.70;26.50
21682;DHT22;11002;48.256;10.084;2022-12-10T15:17:59;16.80;26.60
21682;DHT22;11002;48.256;10.084;2022-12-10T15:20:30;16.70;26.50
21682;DHT22;11002;48.256;10.084;2022-12-10T15:23:15;16.70;26.60
21682;DHT22;11002;48.256;10.084;2022-12-10T15:25:45;16.70;26.50
21682;DHT22;11002;48.256;10.084;2022-12-10T15:28:29;16.80;26.60
21682;DHT22;11002;48.256;10.084;2022-12-10T15:30:58;16.70;26.50
21682;DHT22;11002;48.256;10.084;2022-12-10T15:33:38;16.80;26.60
21682;DHT22;11002;48.256;10.084;2022-12-10T15:36:16;16.70;26.50
21682;DHT22;11002;48.256;10.084;2022-12-10T15:38:44;16.70;26.50
21682;DHT22;11002;48.256;10.084;2022-12-10T15:41:23;16.70;26.60
21682;DHT22;11002;48.256;10.084;2022-12-10T15:44:02;16.80;26.60
21682;DHT22;11002;48.256;10.084;2022-12-10T15:46:30;16.70;26.50
21682;DHT22;11002;48.256;10.084;2022-12-10T15:48:57;16.70;26.60